createdAt,value
2022-11-20T00:01:23.096Z,93.30
2022-11-20T00:03:52.318Z,92.20
2022-11-20T00:06:21.227Z,91.40
2022-11-20T00:08:49.450Z,90.80
2022-11-20T00:11:19.858Z,90.40
2022-11-20T00:13:49.574Z,90.40
2022-11-20T00:16:19.838Z,90.20
2022-11-20T00:18:47.557Z,89.90
2022-11-20T00:21:17.030Z,90.10
2022-11-20T00:23:44.686Z,90.10
2022-11-20T00:26:14.522Z,90.00
2022-11-20T00:28:42.646Z,90.20
2022-11-20T00:31:13.214Z,90.00
2022-11-20T00:33:41.211Z,90.00
2022-11-20T00:36:11.219Z,90.00
2022-11-20T00:38:38.818Z,89.90
2022-11-20T00:41:09.173Z,89.80
2022-11-20T00:43:38.276Z,89.80
2022-11-20T00:46:10.904Z,89.90
2022-11-20T00:48:38.073Z,89.90
2022-11-20T00:51:05.522Z,89.80
2022-11-20T00:53:33.089Z,89.80
2022-11-20T00:56:02.849Z,90.20
2022-11-20T00:58:35.686Z,91.00
2022-11-20T01:01:08.699Z,91.70
2022-11-20T01:03:37.919Z,92.90
2022-11-20T01:06:38.619Z,93.90
2022-11-20T01:09:14.892Z,94.70
2022-11-20T01:11:45.058Z,95.20
2022-11-20T01:14:15.143Z,95.70
2022-11-20T01:16:45.720Z,96.00
2022-11-20T01:19:17.944Z,96.10
2022-11-20T01:21:48.764Z,96.00
2022-11-20T01:24:18.521Z,95.50
2022-11-20T01:26:48.208Z,94.90
2022-11-20T01:29:18.784Z,94.00
2022-11-20T01:31:46.376Z,91.30
2022-11-20T01:34:17.758Z,89.50
2022-11-20T01:36:45.617Z,88.80
2022-11-20T01:39:21.853Z,88.30
2022-11-20T01:42:10.313Z,88.20
2022-11-20T01:44:54.350Z,88.20
2022-11-20T01:47:39.669Z,88.50
2022-11-20T01:50:16.135Z,88.00
2022-11-20T01:52:51.117Z,87.70
2022-11-20T01:55:25.881Z,87.40
2022-11-20T01:57:53.300Z,86.60
2022-11-20T02:00:21.765Z,85.40
2022-11-20T02:03:12.389Z,84.70
2022-11-20T02:06:06.930Z,83.50
2022-11-20T02:08:35.221Z,83.30
2022-11-20T02:11:02.265Z,83.10
2022-11-20T02:13:44.980Z,83.30
2022-11-20T02:16:26.352Z,83.60
2022-11-20T02:18:55.938Z,83.70
2022-11-20T02:21:35.464Z,83.80
2022-11-20T02:24:10.421Z,84.20
2022-11-20T02:27:09.011Z,84.50
2022-11-20T02:29:40.910Z,84.70
2022-11-20T02:32:18.546Z,85.00
2022-11-20T02:34:45.697Z,85.20
2022-11-20T02:37:13.425Z,85.10
2022-11-20T02:39:41.599Z,85.50
2022-11-20T02:42:09.062Z,85.90
2022-11-20T02:44:36.201Z,86.10
2022-11-20T02:47:03.710Z,86.30
2022-11-20T02:49:30.793Z,86.70
2022-11-20T02:51:58.153Z,87.20
2022-11-20T02:54:26.163Z,87.80
2022-11-20T02:56:53.445Z,88.20
2022-11-20T02:59:20.743Z,88.90
2022-11-20T03:01:47.959Z,89.40
2022-11-20T03:04:15.529Z,90.00
2022-11-20T03:06:42.889Z,90.40
2022-11-20T03:09:10.371Z,91.10
2022-11-20T03:11:37.473Z,91.30
2022-11-20T03:14:05.788Z,91.50
2022-11-20T03:16:33.812Z,91.70
2022-11-20T03:19:01.156Z,91.70
2022-11-20T03:21:28.536Z,91.80
2022-11-20T03:23:56.056Z,91.80
2022-11-20T03:26:25.852Z,91.90
2022-11-20T03:28:55.976Z,91.70
2022-11-20T03:31:26.101Z,91.80
2022-11-20T03:33:53.441Z,91.90
2022-11-20T03:36:21.841Z,92.00
2022-11-20T03:38:49.571Z,90.90
2022-11-20T03:41:22.088Z,91.00
2022-11-20T03:43:53.708Z,91.50
2022-11-20T03:46:21.272Z,91.90
2022-11-20T03:48:51.622Z,92.50
2022-11-20T03:51:29.750Z,93.20
2022-11-20T03:53:59.640Z,93.80
2022-11-20T03:56:29.646Z,94.50
2022-11-20T03:58:57.057Z,94.70
2022-11-20T04:01:27.565Z,95.60
2022-11-20T04:03:56.501Z,96.20
2022-11-20T04:06:34.021Z,95.80
2022-11-20T04:09:01.578Z,95.30
2022-11-20T04:11:31.508Z,95.20
2022-11-20T04:14:04.332Z,95.30
2022-11-20T04:16:36.580Z,94.70
2022-11-20T04:19:06.714Z,94.20
2022-11-20T04:21:34.299Z,93.60
2022-11-20T04:24:01.621Z,93.40
2022-11-20T04:26:29.997Z,93.30
2022-11-20T04:28:58.260Z,92.80
2022-11-20T04:31:28.146Z,92.60
2022-11-20T04:33:55.476Z,92.50
2022-11-20T04:36:25.745Z,92.10
2022-11-20T04:38:58.206Z,91.20
2022-11-20T04:41:31.017Z,91.10
2022-11-20T04:44:03.432Z,90.50
2022-11-20T04:46:33.410Z,90.30
2022-11-20T04:49:01.059Z,89.90
2022-11-20T04:51:29.141Z,89.80
2022-11-20T04:53:56.308Z,89.30
2022-11-20T04:56:23.766Z,89.00
2022-11-20T04:58:51.409Z,87.00
2022-11-20T05:01:24.065Z,86.10
2022-11-20T05:03:51.647Z,84.60
2022-11-20T05:06:20.712Z,84.20
2022-11-20T05:08:48.307Z,83.80
2022-11-20T05:11:18.597Z,83.90
2022-11-20T05:13:45.719Z,82.50
2022-11-20T05:16:15.576Z,80.70
2022-11-20T05:18:43.879Z,80.30
2022-11-20T05:21:12.274Z,79.80
2022-11-20T05:23:40.037Z,80.00
2022-11-20T05:26:08.913Z,80.50
2022-11-20T05:28:36.337Z,80.80
2022-11-20T05:31:22.012Z,82.20
2022-11-20T05:33:52.708Z,83.00
2022-11-20T05:36:19.865Z,83.70
2022-11-20T05:38:50.667Z,84.10
2022-11-20T05:41:21.171Z,84.30
2022-11-20T05:43:50.057Z,83.90
2022-11-20T05:46:24.788Z,82.90
2022-11-20T05:48:55.385Z,81.40
2022-11-20T05:51:22.702Z,80.30
2022-11-20T05:53:49.866Z,79.60
2022-11-20T05:56:20.365Z,78.90
2022-11-20T05:58:48.234Z,78.80
2022-11-20T06:01:18.042Z,78.40
2022-11-20T06:03:48.619Z,78.00
2022-11-20T06:06:17.097Z,77.30
2022-11-20T06:08:45.509Z,77.00
2022-11-20T06:11:14.010Z,76.90
2022-11-20T06:13:42.743Z,76.80
2022-11-20T06:16:11.511Z,76.70
2022-11-20T06:18:38.973Z,76.70
2022-11-20T06:21:34.538Z,76.70
2022-11-20T06:24:01.655Z,76.60
2022-11-20T06:26:29.189Z,76.50
2022-11-20T06:28:59.242Z,76.50
2022-11-20T06:31:27.304Z,76.30
2022-11-20T06:33:54.731Z,75.90
2022-11-20T06:36:24.015Z,76.20
2022-11-20T06:38:51.366Z,76.40
2022-11-20T06:41:21.217Z,76.60
2022-11-20T06:43:49.039Z,76.10
2022-11-20T06:46:20.449Z,75.60
2022-11-20T06:48:49.463Z,74.30
2022-11-20T06:51:17.137Z,74.60
2022-11-20T06:53:44.440Z,74.90
2022-11-20T06:56:11.577Z,75.00
2022-11-20T06:58:38.867Z,75.40
2022-11-20T07:01:10.082Z,75.70
2022-11-20T07:03:37.496Z,75.30
2022-11-20T07:06:05.425Z,75.10
2022-11-20T07:08:34.434Z,75.20
2022-11-20T07:11:03.803Z,75.90
2022-11-20T07:13:31.682Z,76.50
2022-11-20T07:16:03.833Z,76.60
2022-11-20T07:18:31.345Z,77.00
2022-11-20T07:21:05.124Z,77.40
2022-11-20T07:23:32.643Z,77.10
2022-11-20T07:26:10.128Z,77.50
2022-11-20T07:28:37.507Z,77.70
2022-11-20T07:31:06.121Z,77.90
2022-11-20T07:33:33.513Z,77.80
2022-11-20T07:36:01.557Z,78.30
2022-11-20T07:38:29.005Z,78.20
2022-11-20T07:40:59.243Z,78.20
2022-11-20T07:43:26.486Z,78.50
2022-11-20T07:45:55.867Z,78.40
2022-11-20T07:48:23.102Z,78.50
2022-11-20T07:50:50.695Z,78.80
2022-11-20T07:53:21.757Z,78.50
2022-11-20T07:55:49.372Z,78.80
2022-11-20T07:58:16.470Z,80.90
2022-11-20T08:00:43.773Z,85.30
2022-11-20T08:03:11.156Z,97.00
2022-11-20T08:05:38.477Z,99.90
2022-11-20T08:08:05.829Z,99.90
2022-11-20T08:10:32.981Z,99.90
2022-11-20T08:13:18.769Z,99.90
2022-11-20T08:15:53.481Z,99.90
2022-11-20T08:18:35.909Z,99.90
2022-11-20T08:21:03.820Z,99.90
2022-11-20T08:23:31.311Z,99.90
2022-11-20T08:25:58.602Z,99.90
2022-11-20T08:28:25.995Z,99.90
2022-11-20T08:31:00.089Z,99.90
2022-11-20T08:33:27.563Z,99.90
2022-11-20T08:35:54.694Z,99.90
2022-11-20T08:38:21.892Z,99.90
2022-11-20T08:41:08.959Z,99.90
2022-11-20T08:43:36.110Z,99.90
2022-11-20T08:46:03.160Z,99.90
2022-11-20T08:48:30.326Z,99.90
2022-11-20T08:51:00.445Z,99.90
2022-11-20T08:53:28.690Z,99.90
2022-11-20T08:55:55.975Z,99.90
2022-11-20T08:58:23.118Z,99.90
2022-11-20T09:00:50.227Z,99.90
2022-11-20T09:03:17.530Z,99.90
2022-11-20T09:05:44.671Z,99.90
2022-11-20T09:08:12.239Z,99.90
2022-11-20T09:10:42.029Z,99.90
2022-11-20T09:13:09.230Z,99.90
2022-11-20T09:15:36.312Z,99.90
2022-11-20T09:18:05.710Z,99.90
2022-11-20T09:20:32.909Z,99.90
2022-11-20T09:22:59.993Z,99.90
2022-11-20T09:25:27.166Z,99.90
2022-11-20T09:28:00.720Z,99.90
2022-11-20T09:30:28.873Z,99.90
2022-11-20T09:32:55.964Z,99.90
2022-11-20T09:35:23.385Z,99.90
2022-11-20T09:37:50.624Z,99.90
2022-11-20T09:40:27.102Z,99.90
2022-11-20T09:43:15.552Z,99.90
2022-11-20T09:46:04.350Z,99.90
2022-11-20T09:48:34.425Z,99.90
2022-11-20T09:51:23.374Z,99.90
2022-11-20T09:53:56.492Z,99.90
2022-11-20T09:56:24.492Z,99.90
2022-11-20T09:58:58.954Z,99.90
2022-11-20T10:01:31.782Z,99.90
2022-11-20T10:04:14.835Z,99.90
2022-11-20T10:07:31.028Z,99.20
2022-11-20T10:09:56.185Z,97.30
2022-11-20T10:12:23.201Z,99.50
2022-11-20T10:14:59.301Z,99.90
2022-11-20T10:17:40.738Z,99.90
2022-11-20T10:20:10.736Z,99.50
2022-11-20T10:23:26.030Z,96.40
2022-11-20T10:26:14.213Z,97.70
2022-11-20T10:29:09.275Z,98.50
2022-11-20T10:31:45.429Z,97.70
2022-11-20T10:34:27.311Z,95.70
2022-11-20T10:36:59.365Z,97.00
2022-11-20T10:39:57.144Z,95.10
2022-11-20T10:42:35.500Z,92.30
2022-11-20T10:45:30.593Z,92.10
2022-11-20T10:48:13.080Z,85.70
2022-11-20T10:50:49.832Z,84.70
2022-11-20T10:53:39.189Z,82.90
2022-11-20T10:56:48.341Z,80.20
2022-11-20T10:59:47.877Z,79.40
2022-11-20T11:02:32.072Z,79.90
2022-11-20T11:05:10.338Z,80.30
2022-11-20T11:07:41.660Z,80.40
2022-11-20T11:10:42.452Z,79.70
2022-11-20T11:13:30.866Z,74.70
2022-11-20T11:15:58.821Z,73.20
2022-11-20T11:18:34.431Z,72.70
2022-11-20T11:21:06.081Z,69.30
2022-11-20T11:23:41.757Z,68.60
2022-11-20T11:26:20.933Z,66.20
2022-11-20T11:29:02.057Z,64.80
2022-11-20T11:31:35.392Z,64.70
2022-11-20T11:34:06.701Z,66.50
2022-11-20T11:36:35.650Z,63.10
2022-11-20T11:39:05.029Z,64.20
2022-11-20T11:41:38.124Z,65.20
2022-11-20T11:44:39.104Z,66.50
2022-11-20T11:47:12.689Z,66.60
2022-11-20T11:49:39.841Z,67.10
2022-11-20T11:52:17.393Z,68.20
2022-11-20T11:54:49.624Z,69.70
2022-11-20T11:57:58.953Z,68.30
2022-11-20T12:00:26.290Z,70.40
2022-11-20T12:03:25.958Z,70.90
2022-11-20T12:06:00.934Z,72.00
2022-11-20T12:08:42.893Z,73.50
2022-11-20T12:11:39.150Z,74.30
2022-11-20T12:14:27.414Z,74.20
2022-11-20T12:16:56.805Z,74.80
2022-11-20T12:19:26.506Z,73.80
2022-11-20T12:22:18.789Z,72.80
2022-11-20T12:25:10.743Z,73.10
2022-11-20T12:28:03.958Z,73.00
2022-11-20T12:30:36.597Z,75.10
2022-11-20T12:33:30.013Z,76.10
2022-11-20T12:36:16.892Z,77.20
2022-11-20T12:38:59.014Z,76.90
2022-11-20T12:42:06.275Z,77.40
2022-11-20T12:45:11.017Z,78.20
2022-11-20T12:47:44.246Z,77.70
2022-11-20T12:51:08.131Z,77.70
2022-11-20T12:53:39.813Z,78.90
2022-11-20T12:56:42.308Z,77.80
2022-11-20T12:59:46.283Z,78.00
2022-11-20T13:02:46.466Z,77.40
2022-11-20T13:05:28.300Z,76.50
2022-11-20T13:07:56.606Z,76.20
2022-11-20T13:10:47.256Z,75.80
2022-11-20T13:13:23.130Z,76.40
2022-11-20T13:15:59.693Z,75.50
2022-11-20T13:18:27.259Z,74.20
2022-11-20T13:20:54.359Z,73.70
2022-11-20T13:23:26.830Z,73.20
2022-11-20T13:26:15.554Z,72.00
2022-11-20T13:28:48.261Z,71.80
2022-11-20T13:31:36.685Z,70.80
2022-11-20T13:34:07.043Z,71.80
2022-11-20T13:36:37.720Z,72.50
2022-11-20T13:39:05.010Z,74.00
2022-11-20T13:41:36.616Z,74.40
2022-11-20T13:44:28.745Z,75.10
2022-11-20T13:46:55.931Z,75.20
2022-11-20T13:49:22.970Z,75.60
2022-11-20T13:52:07.161Z,76.00
2022-11-20T13:54:55.694Z,76.80
2022-11-20T13:57:39.570Z,76.30
2022-11-20T14:00:27.479Z,75.70
2022-11-20T14:03:01.186Z,75.10
2022-11-20T14:05:29.442Z,75.40
2022-11-20T14:07:58.229Z,75.40
2022-11-20T14:10:32.427Z,75.80
2022-11-20T14:13:10.701Z,75.20
2022-11-20T14:15:44.602Z,75.20
2022-11-20T14:18:16.908Z,76.70
2022-11-20T14:20:44.897Z,76.20
2022-11-20T14:23:12.858Z,76.20
2022-11-20T14:25:44.268Z,76.10
2022-11-20T14:28:19.757Z,76.10
2022-11-20T14:30:49.393Z,76.70
2022-11-20T14:33:17.050Z,76.90
2022-11-20T14:35:49.645Z,76.70
2022-11-20T14:38:19.961Z,75.90
2022-11-20T14:40:47.267Z,76.90
2022-11-20T14:43:34.337Z,76.90
2022-11-20T14:46:12.506Z,76.50
2022-11-20T14:48:49.288Z,77.00
2022-11-20T14:51:42.498Z,77.90
2022-11-20T14:54:20.162Z,78.00
2022-11-20T14:56:58.502Z,78.10
2022-11-20T14:59:31.029Z,77.50
2022-11-20T15:02:02.641Z,78.00
2022-11-20T15:04:30.152Z,78.20
2022-11-20T15:07:00.661Z,78.30
2022-11-20T15:09:28.128Z,78.00
2022-11-20T15:12:01.408Z,76.80
2022-11-20T15:14:30.961Z,76.80
2022-11-20T15:16:58.245Z,76.10
2022-11-20T15:19:27.592Z,77.30
2022-11-20T15:21:54.900Z,77.60
2022-11-20T15:24:22.555Z,77.20
2022-11-20T15:26:50.046Z,77.50
2022-11-20T15:29:20.016Z,77.10
2022-11-20T15:31:47.397Z,78.10
2022-11-20T15:34:17.991Z,78.50
2022-11-20T15:36:45.425Z,78.60
2022-11-20T15:39:12.697Z,79.40
2022-11-20T15:41:40.335Z,79.70
2022-11-20T15:44:07.699Z,80.20
2022-11-20T15:46:39.559Z,80.80
2022-11-20T15:49:12.481Z,81.10
2022-11-20T15:51:42.967Z,81.30
2022-11-20T15:54:21.374Z,81.70
2022-11-20T15:56:50.722Z,82.00
2022-11-20T15:59:18.098Z,82.40
2022-11-20T16:01:45.442Z,82.50
2022-11-20T16:04:15.159Z,82.30
2022-11-20T16:06:43.379Z,82.80
2022-11-20T16:09:10.753Z,83.00
2022-11-20T16:11:38.709Z,83.10
2022-11-20T16:14:25.615Z,83.00
2022-11-20T16:16:53.254Z,82.90
2022-11-20T16:19:21.334Z,83.60
2022-11-20T16:21:48.512Z,83.50
2022-11-20T16:24:16.898Z,84.00
2022-11-20T16:26:44.500Z,83.80
2022-11-20T16:29:11.781Z,83.90
2022-11-20T16:31:39.066Z,83.90
2022-11-20T16:34:12.420Z,84.10
2022-11-20T16:36:51.284Z,84.20
2022-11-20T16:39:23.328Z,84.20
2022-11-20T16:41:51.309Z,84.60
2022-11-20T16:44:18.837Z,84.90
2022-11-20T16:46:46.196Z,84.90
2022-11-20T16:49:15.037Z,85.00
2022-11-20T16:51:42.959Z,84.90
2022-11-20T16:54:12.361Z,84.50
2022-11-20T16:56:42.369Z,84.70
2022-11-20T16:59:09.808Z,84.60
2022-11-20T17:01:40.416Z,84.50
2022-11-20T17:04:07.970Z,84.80
2022-11-20T17:06:37.828Z,84.80
2022-11-20T17:09:05.739Z,85.20
2022-11-20T17:11:33.808Z,85.30
2022-11-20T17:14:02.431Z,85.60
2022-11-20T17:16:31.433Z,85.60
2022-11-20T17:19:02.975Z,85.90
2022-11-20T17:21:37.846Z,85.90
2022-11-20T17:24:10.788Z,85.60
2022-11-20T17:26:40.651Z,85.70
2022-11-20T17:29:13.295Z,85.10
2022-11-20T17:31:41.081Z,84.20
2022-11-20T17:34:11.564Z,83.50
2022-11-20T17:36:45.939Z,82.30
2022-11-20T17:39:15.125Z,81.10
2022-11-20T17:41:42.490Z,79.90
2022-11-20T17:44:11.034Z,79.00
2022-11-20T17:46:38.659Z,78.50
2022-11-20T17:49:06.098Z,77.50
2022-11-20T17:51:35.412Z,77.00
2022-11-20T17:54:07.358Z,77.00
2022-11-20T17:56:54.749Z,77.00
2022-11-20T17:59:22.937Z,77.50
2022-11-20T18:01:50.160Z,77.40
2022-11-20T18:04:17.825Z,77.50
2022-11-20T18:06:44.964Z,77.60
2022-11-20T18:09:12.723Z,77.90
2022-11-20T18:11:42.101Z,77.40
2022-11-20T18:14:34.855Z,77.00
2022-11-20T18:17:04.643Z,76.60
2022-11-20T18:19:38.872Z,77.10
2022-11-20T18:22:09.109Z,77.60
2022-11-20T18:24:37.499Z,78.10
2022-11-20T18:27:05.860Z,77.70
2022-11-20T18:29:33.723Z,77.30
2022-11-20T18:32:01.385Z,77.20
2022-11-20T18:34:28.802Z,76.70
2022-11-20T18:36:56.045Z,76.50
2022-11-20T18:39:24.198Z,76.70
2022-11-20T18:42:09.761Z,76.70
2022-11-20T18:44:51.984Z,76.80
2022-11-20T18:47:24.890Z,77.30
2022-11-20T18:49:54.242Z,77.60
2022-11-20T18:52:32.240Z,77.90
2022-11-20T18:55:00.366Z,78.30
2022-11-20T18:57:28.721Z,78.40
2022-11-20T19:00:03.438Z,78.50
2022-11-20T19:02:35.491Z,78.60
2022-11-20T19:05:08.354Z,78.60
2022-11-20T19:07:35.641Z,78.50
2022-11-20T19:10:04.248Z,78.30
2022-11-20T19:12:31.978Z,78.20
2022-11-20T19:14:59.219Z,78.00
2022-11-20T19:17:26.383Z,78.30
2022-11-20T19:19:55.030Z,78.80
2022-11-20T19:22:22.701Z,79.70
2022-11-20T19:24:49.834Z,79.70
2022-11-20T19:27:17.068Z,80.20
2022-11-20T19:29:44.356Z,80.20
2022-11-20T19:32:11.569Z,79.80
2022-11-20T19:34:38.687Z,79.30
2022-11-20T19:37:05.894Z,79.30
2022-11-20T19:39:33.164Z,79.60
2022-11-20T19:42:00.338Z,79.30
2022-11-20T19:44:27.945Z,79.00
2022-11-20T19:46:57.378Z,79.00
2022-11-20T19:49:24.932Z,79.20
2022-11-20T19:51:52.459Z,79.50
2022-11-20T19:54:19.782Z,79.90
2022-11-20T19:56:48.912Z,80.20
2022-11-20T19:59:16.226Z,80.40
2022-11-20T20:01:43.562Z,80.60
2022-11-20T20:04:11.190Z,80.60
2022-11-20T20:06:40.125Z,80.90
2022-11-20T20:09:10.518Z,81.50
2022-11-20T20:11:38.400Z,81.40
2022-11-20T20:14:13.810Z,81.30
2022-11-20T20:16:42.120Z,81.70
2022-11-20T20:19:13.674Z,81.80
2022-11-20T20:21:44.178Z,82.30
2022-11-20T20:24:12.404Z,82.60
2022-11-20T20:26:40.089Z,82.40
2022-11-20T20:29:07.281Z,82.70
2022-11-20T20:31:35.090Z,83.00
2022-11-20T20:34:03.561Z,83.00
2022-11-20T20:36:30.974Z,82.80
2022-11-20T20:39:08.393Z,82.30
2022-11-20T20:41:35.536Z,81.80
2022-11-20T20:44:20.992Z,81.80
2022-11-20T20:46:48.093Z,81.60
2022-11-20T20:49:15.335Z,81.30
2022-11-20T20:51:42.569Z,81.40
2022-11-20T20:54:10.787Z,81.40
2022-11-20T20:56:37.963Z,81.60
2022-11-20T20:59:05.372Z,81.60
2022-11-20T21:01:32.683Z,81.90
2022-11-20T21:03:59.928Z,81.90
2022-11-20T21:06:27.147Z,81.50
2022-11-20T21:08:56.042Z,80.60
2022-11-20T21:11:23.074Z,80.00
2022-11-20T21:13:50.178Z,79.40
2022-11-20T21:16:19.021Z,78.90
2022-11-20T21:18:46.637Z,78.50
2022-11-20T21:21:34.379Z,78.30
2022-11-20T21:24:01.791Z,78.40
2022-11-20T21:26:28.945Z,78.70
2022-11-20T21:28:57.248Z,79.70
2022-11-20T21:31:26.765Z,80.80
2022-11-20T21:33:55.972Z,81.70
2022-11-20T21:36:29.713Z,82.40
2022-11-20T21:38:59.547Z,82.30
2022-11-20T21:41:28.746Z,82.10
2022-11-20T21:44:29.666Z,82.10
2022-11-20T21:46:46.036Z,82.80
2022-11-20T21:49:14.769Z,83.40
2022-11-20T21:51:42.148Z,83.10
2022-11-20T21:54:10.696Z,83.60
2022-11-20T21:56:38.177Z,84.10
2022-11-20T21:59:05.290Z,84.40
2022-11-20T22:01:32.701Z,84.10
2022-11-20T22:04:02.473Z,83.60
2022-11-20T22:06:34.642Z,83.70
2022-11-20T22:09:02.926Z,84.00
2022-11-20T22:11:30.450Z,84.30
2022-11-20T22:14:16.894Z,84.40
2022-11-20T22:16:44.098Z,84.10
2022-11-20T22:19:11.248Z,83.80
2022-11-20T22:21:42.043Z,83.80
2022-11-20T22:24:13.110Z,83.50
2022-11-20T22:26:40.950Z,83.30
2022-11-20T22:29:12.577Z,84.00
2022-11-20T22:31:41.097Z,84.30
2022-11-20T22:34:11.588Z,84.50
2022-11-20T22:36:39.497Z,84.70
2022-11-20T22:39:07.459Z,84.50
2022-11-20T22:41:35.289Z,84.70
2022-11-20T22:44:05.425Z,84.90
2022-11-20T22:46:34.730Z,84.70
2022-11-20T22:49:06.781Z,82.70
2022-11-20T22:51:36.951Z,81.60
2022-11-20T22:54:04.326Z,80.50
2022-11-20T22:56:31.880Z,79.90
2022-11-20T22:58:59.476Z,80.00
2022-11-20T23:01:29.021Z,80.10
2022-11-20T23:03:59.082Z,79.60
2022-11-20T23:06:26.919Z,79.10
2022-11-20T23:08:54.797Z,79.00
2022-11-20T23:11:24.525Z,78.30
2022-11-20T23:13:58.140Z,78.00
2022-11-20T23:16:27.749Z,77.90
2022-11-20T23:18:56.608Z,77.70
2022-11-20T23:21:24.858Z,77.90
2022-11-20T23:23:54.090Z,78.00
2022-11-20T23:26:24.093Z,77.90
2022-11-20T23:28:53.016Z,77.70
2022-11-20T23:31:20.354Z,77.50
2022-11-20T23:33:47.546Z,77.40
2022-11-20T23:36:15.221Z,77.00
2022-11-20T23:38:42.537Z,76.90
2022-11-20T23:41:10.165Z,77.10
2022-11-20T23:43:37.185Z,77.10
2022-11-20T23:46:04.973Z,76.60
2022-11-20T23:48:37.334Z,75.70
2022-11-20T23:51:06.596Z,75.00
2022-11-20T23:53:34.045Z,74.50
2022-11-20T23:56:03.900Z,74.00
2022-11-20T23:58:34.260Z,74.10
